sensor_id;sensor_type;location;lat;lon;timestamp;P1;durP1;ratioP1;P2;durP2;ratioP2
11907;SDS011;6014;47.690;9.130;2023-04-25T00:00:42;5.53;;;2.47;;
11907;SDS011;6014;47.690;9.130;2023-04-25T00:03:10;7.37;;;2.87;;
11907;SDS011;6014;47.690;9.130;2023-04-25T00:05:38;4.97;;;2.30;;
11907;SDS011;6014;47.690;9.130;2023-04-25T00:08:08;4.87;;;2.83;;
11907;SDS011;6014;47.690;9.130;2023-04-25T00:10:38;4.47;;;2.53;;
11907;SDS011;6014;47.690;9.130;2023-04-25T00:13:09;8.43;;;2.53;;
11907;SDS011;6014;47.690;9.130;2023-04-25T00:15:37;8.60;;;2.60;;
11907;SDS011;6014;47.690;9.130;2023-04-25T00:18:08;6.27;;;2.00;;
11907;SDS011;6014;47.690;9.130;2023-04-25T00:20:37;4.47;;;2.40;;
11907;SDS011;6014;47.690;9.130;2023-04-25T00:23:05;8.27;;;2.23;;
11907;SDS011;6014;47.690;9.130;2023-04-25T00:25:35;4.97;;;2.53;;
11907;SDS011;6014;47.690;9.130;2023-04-25T00:28:03;7.30;;;2.37;;
11907;SDS011;6014;47.690;9.130;2023-04-25T00:30:31;5.57;;;2.73;;
11907;SDS011;6014;47.690;9.130;2023-04-25T00:32:59;4.37;;;2.10;;
11907;SDS011;6014;47.690;9.130;2023-04-25T00:35:27;6.23;;;2.67;;
11907;SDS011;6014;47.690;9.130;2023-04-25T00:37:55;3.97;;;2.03;;
11907;SDS011;6014;47.690;9.130;2023-04-25T00:40:24;4.13;;;1.87;;
11907;SDS011;6014;47.690;9.130;2023-04-25T00:42:53;6.37;;;2.20;;
11907;SDS011;6014;47.690;9.130;2023-04-25T00:45:21;5.57;;;2.37;;
11907;SDS011;6014;47.690;9.130;2023-04-25T00:47:52;5.80;;;2.30;;
11907;SDS011;6014;47.690;9.130;2023-04-25T00:50:21;5.07;;;2.10;;
11907;SDS011;6014;47.690;9.130;2023-04-25T00:52:49;3.67;;;2.00;;
11907;SDS011;6014;47.690;9.130;2023-04-25T00:55:18;4.43;;;1.73;;
11907;SDS011;6014;47.690;9.130;2023-04-25T00:57:49;4.60;;;1.87;;
11907;SDS011;6014;47.690;9.130;2023-04-25T01:00:18;6.70;;;1.80;;
11907;SDS011;6014;47.690;9.130;2023-04-25T01:02:47;6.17;;;2.10;;
11907;SDS011;6014;47.690;9.130;2023-04-25T01:05:18;7.70;;;2.13;;
11907;SDS011;6014;47.690;9.130;2023-04-25T01:07:46;3.53;;;1.73;;
11907;SDS011;6014;47.690;9.130;2023-04-25T01:10:14;4.03;;;2.00;;
11907;SDS011;6014;47.690;9.130;2023-04-25T01:12:42;3.00;;;1.80;;
11907;SDS011;6014;47.690;9.130;2023-04-25T01:15:12;5.90;;;2.30;;
11907;SDS011;6014;47.690;9.130;2023-04-25T01:17:40;4.10;;;1.70;;
11907;SDS011;6014;47.690;9.130;2023-04-25T01:20:10;5.93;;;2.40;;
11907;SDS011;6014;47.690;9.130;2023-04-25T01:22:40;5.47;;;2.00;;
11907;SDS011;6014;47.690;9.130;2023-04-25T01:25:09;5.40;;;1.80;;
11907;SDS011;6014;47.690;9.130;2023-04-25T01:27:38;3.30;;;1.70;;
11907;SDS011;6014;47.690;9.130;2023-04-25T01:30:14;4.13;;;1.70;;
11907;SDS011;6014;47.690;9.130;2023-04-25T01:32:42;4.93;;;2.17;;
11907;SDS011;6014;47.690;9.130;2023-04-25T01:35:11;7.93;;;2.10;;
11907;SDS011;6014;47.690;9.130;2023-04-25T01:37:42;3.97;;;2.00;;
11907;SDS011;6014;47.690;9.130;2023-04-25T01:40:13;3.33;;;1.93;;
11907;SDS011;6014;47.690;9.130;2023-04-25T01:42:41;5.30;;;2.40;;
11907;SDS011;6014;47.690;9.130;2023-04-25T01:45:10;3.93;;;2.10;;
11907;SDS011;6014;47.690;9.130;2023-04-25T01:47:39;3.60;;;2.10;;
11907;SDS011;6014;47.690;9.130;2023-04-25T01:50:10;5.63;;;2.27;;
11907;SDS011;6014;47.690;9.130;2023-04-25T01:52:40;4.33;;;2.33;;
11907;SDS011;6014;47.690;9.130;2023-04-25T01:55:11;4.37;;;1.90;;
11907;SDS011;6014;47.690;9.130;2023-04-25T01:57:39;4.40;;;2.10;;
11907;SDS011;6014;47.690;9.130;2023-04-25T02:00:07;4.17;;;1.70;;
11907;SDS011;6014;47.690;9.130;2023-04-25T02:02:36;5.30;;;2.13;;
11907;SDS011;6014;47.690;9.130;2023-04-25T02:05:05;5.80;;;2.20;;
11907;SDS011;6014;47.690;9.130;2023-04-25T02:07:34;7.17;;;2.37;;
11907;SDS011;6014;47.690;9.130;2023-04-25T02:10:02;6.70;;;2.77;;
11907;SDS011;6014;47.690;9.130;2023-04-25T02:12:31;16.53;;;3.17;;
11907;SDS011;6014;47.690;9.130;2023-04-25T02:14:59;6.50;;;2.53;;
11907;SDS011;6014;47.690;9.130;2023-04-25T02:17:28;8.33;;;3.03;;
11907;SDS011;6014;47.690;9.130;2023-04-25T02:19:57;5.43;;;2.23;;
11907;SDS011;6014;47.690;9.130;2023-04-25T02:22:25;5.50;;;2.47;;
11907;SDS011;6014;47.690;9.130;2023-04-25T02:24:56;7.87;;;2.20;;
11907;SDS011;6014;47.690;9.130;2023-04-25T02:27:24;3.80;;;2.13;;
11907;SDS011;6014;47.690;9.130;2023-04-25T02:29:54;5.80;;;2.70;;
11907;SDS011;6014;47.690;9.130;2023-04-25T02:32:22;3.87;;;1.53;;
11907;SDS011;6014;47.690;9.130;2023-04-25T02:34:50;4.70;;;2.00;;
11907;SDS011;6014;47.690;9.130;2023-04-25T02:37:18;5.53;;;2.30;;
11907;SDS011;6014;47.690;9.130;2023-04-25T02:39:46;2.03;;;1.40;;
11907;SDS011;6014;47.690;9.130;2023-04-25T02:42:14;2.67;;;1.57;;
11907;SDS011;6014;47.690;9.130;2023-04-25T02:44:42;2.90;;;1.60;;
11907;SDS011;6014;47.690;9.130;2023-04-25T02:47:11;3.63;;;1.80;;
11907;SDS011;6014;47.690;9.130;2023-04-25T02:49:39;3.37;;;1.70;;
11907;SDS011;6014;47.690;9.130;2023-04-25T02:52:07;5.57;;;1.57;;
11907;SDS011;6014;47.690;9.130;2023-04-25T02:54:36;4.37;;;2.20;;
11907;SDS011;6014;47.690;9.130;2023-04-25T02:57:04;3.23;;;1.87;;
11907;SDS011;6014;47.690;9.130;2023-04-25T02:59:32;2.97;;;1.50;;
11907;SDS011;6014;47.690;9.130;2023-04-25T03:02:00;3.13;;;1.80;;
11907;SDS011;6014;47.690;9.130;2023-04-25T03:04:30;3.13;;;1.80;;
11907;SDS011;6014;47.690;9.130;2023-04-25T03:07:03;1.83;;;1.43;;
11907;SDS011;6014;47.690;9.130;2023-04-25T03:09:31;8.07;;;2.07;;
11907;SDS011;6014;47.690;9.130;2023-04-25T03:12:00;2.23;;;1.33;;
11907;SDS011;6014;47.690;9.130;2023-04-25T03:14:28;5.00;;;2.17;;
11907;SDS011;6014;47.690;9.130;2023-04-25T03:16:56;2.70;;;1.40;;
11907;SDS011;6014;47.690;9.130;2023-04-25T03:19:24;2.30;;;1.50;;
11907;SDS011;6014;47.690;9.130;2023-04-25T03:21:53;3.47;;;1.63;;
11907;SDS011;6014;47.690;9.130;2023-04-25T03:24:21;4.73;;;1.90;;
11907;SDS011;6014;47.690;9.130;2023-04-25T03:26:49;4.77;;;2.20;;
11907;SDS011;6014;47.690;9.130;2023-04-25T03:29:18;2.83;;;1.50;;
11907;SDS011;6014;47.690;9.130;2023-04-25T03:31:50;6.10;;;2.07;;
11907;SDS011;6014;47.690;9.130;2023-04-25T03:34:18;5.53;;;1.80;;
11907;SDS011;6014;47.690;9.130;2023-04-25T03:36:47;4.00;;;2.40;;
11907;SDS011;6014;47.690;9.130;2023-04-25T03:39:17;3.97;;;2.10;;
11907;SDS011;6014;47.690;9.130;2023-04-25T03:41:45;4.80;;;1.97;;
11907;SDS011;6014;47.690;9.130;2023-04-25T03:44:13;3.80;;;2.03;;
11907;SDS011;6014;47.690;9.130;2023-04-25T03:46:41;3.13;;;1.77;;
11907;SDS011;6014;47.690;9.130;2023-04-25T03:49:09;2.33;;;1.53;;
11907;SDS011;6014;47.690;9.130;2023-04-25T03:51:37;2.13;;;1.43;;
11907;SDS011;6014;47.690;9.130;2023-04-25T03:54:05;2.30;;;1.60;;
11907;SDS011;6014;47.690;9.130;2023-04-25T03:56:37;3.37;;;1.77;;
11907;SDS011;6014;47.690;9.130;2023-04-25T03:59:05;6.43;;;1.60;;
11907;SDS011;6014;47.690;9.130;2023-04-25T04:01:34;4.33;;;1.77;;
11907;SDS011;6014;47.690;9.130;2023-04-25T04:04:02;2.50;;;1.23;;
11907;SDS011;6014;47.690;9.130;2023-04-25T04:06:30;3.53;;;1.80;;
11907;SDS011;6014;47.690;9.130;2023-04-25T04:08:59;2.67;;;1.53;;
11907;SDS011;6014;47.690;9.130;2023-04-25T04:11:27;3.87;;;1.87;;
11907;SDS011;6014;47.690;9.130;2023-04-25T04:13:57;2.63;;;1.60;;
11907;SDS011;6014;47.690;9.130;2023-04-25T04:16:25;3.47;;;1.80;;
11907;SDS011;6014;47.690;9.130;2023-04-25T04:18:53;3.77;;;1.97;;
11907;SDS011;6014;47.690;9.130;2023-04-25T04:21:21;3.40;;;1.90;;
11907;SDS011;6014;47.690;9.130;2023-04-25T04:23:49;5.10;;;2.77;;
11907;SDS011;6014;47.690;9.130;2023-04-25T04:26:17;6.33;;;3.30;;
11907;SDS011;6014;47.690;9.130;2023-04-25T04:28:45;5.67;;;3.43;;
11907;SDS011;6014;47.690;9.130;2023-04-25T04:31:15;4.33;;;2.77;;
11907;SDS011;6014;47.690;9.130;2023-04-25T04:33:45;3.23;;;1.87;;
11907;SDS011;6014;47.690;9.130;2023-04-25T04:36:14;4.33;;;2.03;;
11907;SDS011;6014;47.690;9.130;2023-04-25T04:38:45;4.37;;;2.00;;
11907;SDS011;6014;47.690;9.130;2023-04-25T04:41:13;5.97;;;2.10;;
11907;SDS011;6014;47.690;9.130;2023-04-25T04:43:43;6.10;;;2.40;;
11907;SDS011;6014;47.690;9.130;2023-04-25T04:46:11;3.80;;;2.17;;
11907;SDS011;6014;47.690;9.130;2023-04-25T04:48:42;6.33;;;2.63;;
11907;SDS011;6014;47.690;9.130;2023-04-25T04:51:10;5.20;;;2.50;;
11907;SDS011;6014;47.690;9.130;2023-04-25T04:53:39;5.17;;;2.33;;
11907;SDS011;6014;47.690;9.130;2023-04-25T04:56:10;3.70;;;2.03;;
11907;SDS011;6014;47.690;9.130;2023-04-25T04:58:39;4.17;;;2.07;;
11907;SDS011;6014;47.690;9.130;2023-04-25T05:01:07;4.13;;;1.90;;
11907;SDS011;6014;47.690;9.130;2023-04-25T05:03:35;3.73;;;1.90;;
11907;SDS011;6014;47.690;9.130;2023-04-25T05:06:06;4.10;;;2.20;;
11907;SDS011;6014;47.690;9.130;2023-04-25T05:08:36;4.83;;;2.50;;
11907;SDS011;6014;47.690;9.130;2023-04-25T05:11:04;3.73;;;2.30;;
11907;SDS011;6014;47.690;9.130;2023-04-25T05:13:32;3.40;;;2.10;;
11907;SDS011;6014;47.690;9.130;2023-04-25T05:16:00;4.27;;;2.03;;
11907;SDS011;6014;47.690;9.130;2023-04-25T05:18:29;3.90;;;2.03;;
11907;SDS011;6014;47.690;9.130;2023-04-25T05:20:58;3.77;;;2.10;;
11907;SDS011;6014;47.690;9.130;2023-04-25T05:23:27;3.17;;;1.67;;
11907;SDS011;6014;47.690;9.130;2023-04-25T05:26:00;3.53;;;1.80;;
11907;SDS011;6014;47.690;9.130;2023-04-25T05:31:08;4.10;;;2.17;;
11907;SDS011;6014;47.690;9.130;2023-04-25T05:33:37;5.73;;;2.10;;
11907;SDS011;6014;47.690;9.130;2023-04-25T05:36:05;5.07;;;1.50;;
11907;SDS011;6014;47.690;9.130;2023-04-25T05:38:35;4.97;;;1.63;;
11907;SDS011;6014;47.690;9.130;2023-04-25T05:41:03;2.43;;;1.47;;
11907;SDS011;6014;47.690;9.130;2023-04-25T05:43:42;3.00;;;1.70;;
11907;SDS011;6014;47.690;9.130;2023-04-25T05:46:13;2.97;;;1.47;;
11907;SDS011;6014;47.690;9.130;2023-04-25T05:48:42;3.23;;;1.67;;
11907;SDS011;6014;47.690;9.130;2023-04-25T05:51:10;3.30;;;1.53;;
11907;SDS011;6014;47.690;9.130;2023-04-25T05:53:39;1.63;;;1.07;;
11907;SDS011;6014;47.690;9.130;2023-04-25T05:56:07;3.80;;;1.70;;
11907;SDS011;6014;47.690;9.130;2023-04-25T05:58:35;2.53;;;1.40;;
11907;SDS011;6014;47.690;9.130;2023-04-25T06:01:03;1.93;;;1.37;;
11907;SDS011;6014;47.690;9.130;2023-04-25T06:03:31;2.27;;;1.27;;
11907;SDS011;6014;47.690;9.130;2023-04-25T06:06:00;4.13;;;1.67;;
11907;SDS011;6014;47.690;9.130;2023-04-25T06:08:28;1.50;;;1.10;;
11907;SDS011;6014;47.690;9.130;2023-04-25T06:10:57;2.60;;;1.33;;
11907;SDS011;6014;47.690;9.130;2023-04-25T06:13:26;4.10;;;1.53;;
11907;SDS011;6014;47.690;9.130;2023-04-25T06:15:53;2.37;;;1.57;;
11907;SDS011;6014;47.690;9.130;2023-04-25T06:18:22;5.03;;;2.27;;
11907;SDS011;6014;47.690;9.130;2023-04-25T06:20:50;5.53;;;1.47;;
11907;SDS011;6014;47.690;9.130;2023-04-25T06:23:18;1.93;;;1.17;;
11907;SDS011;6014;47.690;9.130;2023-04-25T06:25:46;2.13;;;1.23;;
11907;SDS011;6014;47.690;9.130;2023-04-25T06:28:15;1.67;;;1.03;;
11907;SDS011;6014;47.690;9.130;2023-04-25T06:30:43;1.07;;;0.90;;
11907;SDS011;6014;47.690;9.130;2023-04-25T06:33:11;3.77;;;1.40;;
11907;SDS011;6014;47.690;9.130;2023-04-25T06:35:39;1.83;;;1.23;;
11907;SDS011;6014;47.690;9.130;2023-04-25T06:38:07;1.90;;;1.10;;
11907;SDS011;6014;47.690;9.130;2023-04-25T06:40:36;2.53;;;1.40;;
11907;SDS011;6014;47.690;9.130;2023-04-25T06:43:05;3.33;;;1.57;;
11907;SDS011;6014;47.690;9.130;2023-04-25T06:45:34;3.43;;;1.73;;
11907;SDS011;6014;47.690;9.130;2023-04-25T06:48:02;3.23;;;1.33;;
11907;SDS011;6014;47.690;9.130;2023-04-25T06:50:31;2.93;;;1.40;;
11907;SDS011;6014;47.690;9.130;2023-04-25T06:52:59;2.53;;;1.43;;
11907;SDS011;6014;47.690;9.130;2023-04-25T06:55:27;2.23;;;1.27;;
11907;SDS011;6014;47.690;9.130;2023-04-25T06:57:56;2.03;;;1.27;;
11907;SDS011;6014;47.690;9.130;2023-04-25T07:00:24;4.90;;;1.80;;
11907;SDS011;6014;47.690;9.130;2023-04-25T07:02:54;2.03;;;1.23;;
11907;SDS011;6014;47.690;9.130;2023-04-25T07:05:22;3.57;;;1.43;;
11907;SDS011;6014;47.690;9.130;2023-04-25T07:07:50;2.73;;;1.40;;
11907;SDS011;6014;47.690;9.130;2023-04-25T07:10:19;3.13;;;1.40;;
11907;SDS011;6014;47.690;9.130;2023-04-25T07:12:47;3.80;;;1.30;;
11907;SDS011;6014;47.690;9.130;2023-04-25T07:15:15;1.77;;;1.20;;
11907;SDS011;6014;47.690;9.130;2023-04-25T07:17:43;2.43;;;1.40;;
11907;SDS011;6014;47.690;9.130;2023-04-25T07:20:13;2.23;;;1.30;;
11907;SDS011;6014;47.690;9.130;2023-04-25T07:22:42;2.40;;;1.53;;
11907;SDS011;6014;47.690;9.130;2023-04-25T07:25:10;2.90;;;1.57;;
11907;SDS011;6014;47.690;9.130;2023-04-25T07:27:38;4.57;;;1.60;;
11907;SDS011;6014;47.690;9.130;2023-04-25T07:30:07;2.60;;;1.20;;
11907;SDS011;6014;47.690;9.130;2023-04-25T07:32:38;1.03;;;0.80;;
11907;SDS011;6014;47.690;9.130;2023-04-25T07:35:07;1.23;;;1.00;;
11907;SDS011;6014;47.690;9.130;2023-04-25T07:37:39;2.50;;;1.37;;
11907;SDS011;6014;47.690;9.130;2023-04-25T07:40:08;2.30;;;1.47;;
11907;SDS011;6014;47.690;9.130;2023-04-25T07:42:36;2.10;;;1.07;;
11907;SDS011;6014;47.690;9.130;2023-04-25T07:45:05;0.80;;;0.80;;
11907;SDS011;6014;47.690;9.130;2023-04-25T07:47:33;3.97;;;1.37;;
11907;SDS011;6014;47.690;9.130;2023-04-25T07:50:02;1.77;;;1.03;;
11907;SDS011;6014;47.690;9.130;2023-04-25T07:52:30;1.80;;;1.17;;
11907;SDS011;6014;47.690;9.130;2023-04-25T07:55:00;1.43;;;1.00;;
11907;SDS011;6014;47.690;9.130;2023-04-25T07:57:28;1.83;;;1.10;;
11907;SDS011;6014;47.690;9.130;2023-04-25T08:00:00;4.07;;;1.00;;
11907;SDS011;6014;47.690;9.130;2023-04-25T08:02:28;2.03;;;1.03;;
11907;SDS011;6014;47.690;9.130;2023-04-25T08:04:56;2.37;;;1.27;;
11907;SDS011;6014;47.690;9.130;2023-04-25T08:07:25;2.43;;;1.23;;
11907;SDS011;6014;47.690;9.130;2023-04-25T08:09:53;2.87;;;1.40;;
11907;SDS011;6014;47.690;9.130;2023-04-25T08:12:23;1.73;;;1.37;;
11907;SDS011;6014;47.690;9.130;2023-04-25T08:14:58;1.53;;;1.20;;
11907;SDS011;6014;47.690;9.130;2023-04-25T08:17:26;0.90;;;0.90;;
11907;SDS011;6014;47.690;9.130;2023-04-25T08:19:54;1.10;;;1.00;;
11907;SDS011;6014;47.690;9.130;2023-04-25T08:22:23;4.63;;;2.30;;
11907;SDS011;6014;47.690;9.130;2023-04-25T08:24:51;1.20;;;0.90;;
11907;SDS011;6014;47.690;9.130;2023-04-25T08:27:19;1.77;;;1.17;;
11907;SDS011;6014;47.690;9.130;2023-04-25T08:29:49;1.90;;;1.17;;
11907;SDS011;6014;47.690;9.130;2023-04-25T08:32:18;0.77;;;0.77;;
11907;SDS011;6014;47.690;9.130;2023-04-25T08:34:47;0.73;;;0.73;;
11907;SDS011;6014;47.690;9.130;2023-04-25T08:37:15;0.73;;;0.73;;
11907;SDS011;6014;47.690;9.130;2023-04-25T08:39:45;0.90;;;0.90;;
11907;SDS011;6014;47.690;9.130;2023-04-25T08:42:14;1.87;;;0.87;;
11907;SDS011;6014;47.690;9.130;2023-04-25T08:44:42;0.97;;;0.97;;
11907;SDS011;6014;47.690;9.130;2023-04-25T08:47:21;0.43;;;0.43;;
11907;SDS011;6014;47.690;9.130;2023-04-25T08:49:50;0.47;;;0.47;;
11907;SDS011;6014;47.690;9.130;2023-04-25T08:52:21;0.60;;;0.60;;
11907;SDS011;6014;47.690;9.130;2023-04-25T08:54:50;0.73;;;0.70;;
11907;SDS011;6014;47.690;9.130;2023-04-25T08:57:29;0.63;;;0.63;;
11907;SDS011;6014;47.690;9.130;2023-04-25T09:00:00;0.80;;;0.80;;
11907;SDS011;6014;47.690;9.130;2023-04-25T09:02:29;1.43;;;0.90;;
11907;SDS011;6014;47.690;9.130;2023-04-25T09:04:57;0.57;;;0.57;;
11907;SDS011;6014;47.690;9.130;2023-04-25T09:07:25;1.30;;;1.20;;
11907;SDS011;6014;47.690;9.130;2023-04-25T09:09:54;0.73;;;0.73;;
11907;SDS011;6014;47.690;9.130;2023-04-25T09:12:22;0.83;;;0.70;;
11907;SDS011;6014;47.690;9.130;2023-04-25T09:15:07;0.83;;;0.83;;
11907;SDS011;6014;47.690;9.130;2023-04-25T09:17:36;1.30;;;1.17;;
11907;SDS011;6014;47.690;9.130;2023-04-25T09:20:08;0.83;;;0.73;;
11907;SDS011;6014;47.690;9.130;2023-04-25T09:22:37;0.70;;;0.70;;
11907;SDS011;6014;47.690;9.130;2023-04-25T09:25:09;0.90;;;0.90;;
11907;SDS011;6014;47.690;9.130;2023-04-25T09:27:48;0.57;;;0.57;;
11907;SDS011;6014;47.690;9.130;2023-04-25T09:30:27;0.60;;;0.60;;
11907;SDS011;6014;47.690;9.130;2023-04-25T09:32:56;0.40;;;0.40;;
11907;SDS011;6014;47.690;9.130;2023-04-25T09:35:25;13.27;;;1.17;;
11907;SDS011;6014;47.690;9.130;2023-04-25T09:37:53;0.43;;;0.43;;
11907;SDS011;6014;47.690;9.130;2023-04-25T09:40:21;0.50;;;0.47;;
11907;SDS011;6014;47.690;9.130;2023-04-25T09:42:49;0.67;;;0.67;;
11907;SDS011;6014;47.690;9.130;2023-04-25T09:45:17;5.43;;;1.53;;
11907;SDS011;6014;47.690;9.130;2023-04-25T09:47:47;1.87;;;0.87;;
11907;SDS011;6014;47.690;9.130;2023-04-25T09:50:29;0.70;;;0.70;;
11907;SDS011;6014;47.690;9.130;2023-04-25T09:53:04;0.57;;;0.50;;
11907;SDS011;6014;47.690;9.130;2023-04-25T09:55:33;0.70;;;0.70;;
11907;SDS011;6014;47.690;9.130;2023-04-25T09:58:03;0.57;;;0.57;;
11907;SDS011;6014;47.690;9.130;2023-04-25T10:00:34;0.70;;;0.70;;
11907;SDS011;6014;47.690;9.130;2023-04-25T10:03:02;0.60;;;0.60;;
11907;SDS011;6014;47.690;9.130;2023-04-25T10:05:34;0.77;;;0.70;;
11907;SDS011;6014;47.690;9.130;2023-04-25T10:08:03;0.50;;;0.50;;
11907;SDS011;6014;47.690;9.130;2023-04-25T10:10:32;1.27;;;1.03;;
11907;SDS011;6014;47.690;9.130;2023-04-25T10:13:03;0.90;;;0.70;;
11907;SDS011;6014;47.690;9.130;2023-04-25T10:15:36;0.40;;;0.40;;
11907;SDS011;6014;47.690;9.130;2023-04-25T10:18:06;0.63;;;0.63;;
11907;SDS011;6014;47.690;9.130;2023-04-25T10:20:36;0.63;;;0.60;;
11907;SDS011;6014;47.690;9.130;2023-04-25T10:23:06;1.00;;;0.80;;
11907;SDS011;6014;47.690;9.130;2023-04-25T10:25:40;0.40;;;0.40;;
11907;SDS011;6014;47.690;9.130;2023-04-25T10:28:09;0.80;;;0.80;;
11907;SDS011;6014;47.690;9.130;2023-04-25T10:30:38;0.87;;;0.60;;
11907;SDS011;6014;47.690;9.130;2023-04-25T10:33:34;0.93;;;0.87;;
11907;SDS011;6014;47.690;9.130;2023-04-25T10:36:09;2.13;;;1.10;;
11907;SDS011;6014;47.690;9.130;2023-04-25T10:38:38;0.70;;;0.70;;
11907;SDS011;6014;47.690;9.130;2023-04-25T10:41:07;0.40;;;0.40;;
11907;SDS011;6014;47.690;9.130;2023-04-25T10:43:36;0.40;;;0.40;;
11907;SDS011;6014;47.690;9.130;2023-04-25T10:46:17;0.77;;;0.67;;
11907;SDS011;6014;47.690;9.130;2023-04-25T10:48:49;0.90;;;0.53;;
11907;SDS011;6014;47.690;9.130;2023-04-25T10:51:19;0.40;;;0.40;;
11907;SDS011;6014;47.690;9.130;2023-04-25T10:53:58;0.70;;;0.70;;
11907;SDS011;6014;47.690;9.130;2023-04-25T10:56:28;0.37;;;0.37;;
11907;SDS011;6014;47.690;9.130;2023-04-25T10:59:04;0.53;;;0.53;;
11907;SDS011;6014;47.690;9.130;2023-04-25T11:01:39;0.53;;;0.53;;
11907;SDS011;6014;47.690;9.130;2023-04-25T11:04:20;0.30;;;0.30;;
11907;SDS011;6014;47.690;9.130;2023-04-25T11:06:58;0.60;;;0.60;;
11907;SDS011;6014;47.690;9.130;2023-04-25T11:09:35;1.13;;;0.60;;
11907;SDS011;6014;47.690;9.130;2023-04-25T11:12:07;0.27;;;0.27;;
11907;SDS011;6014;47.690;9.130;2023-04-25T11:14:38;0.57;;;0.57;;
11907;SDS011;6014;47.690;9.130;2023-04-25T11:17:12;0.73;;;0.70;;
11907;SDS011;6014;47.690;9.130;2023-04-25T11:19:40;0.30;;;0.30;;
11907;SDS011;6014;47.690;9.130;2023-04-25T11:22:13;0.60;;;0.60;;
11907;SDS011;6014;47.690;9.130;2023-04-25T11:24:41;0.50;;;0.50;;
11907;SDS011;6014;47.690;9.130;2023-04-25T11:27:09;0.60;;;0.60;;
11907;SDS011;6014;47.690;9.130;2023-04-25T11:29:37;0.60;;;0.60;;
11907;SDS011;6014;47.690;9.130;2023-04-25T11:32:06;0.50;;;0.50;;
11907;SDS011;6014;47.690;9.130;2023-04-25T11:34:35;0.50;;;0.50;;
11907;SDS011;6014;47.690;9.130;2023-04-25T11:37:03;0.40;;;0.40;;
11907;SDS011;6014;47.690;9.130;2023-04-25T11:39:32;0.50;;;0.50;;
11907;SDS011;6014;47.690;9.130;2023-04-25T11:42:01;0.55;;;0.52;;
11907;SDS011;6014;47.690;9.130;2023-04-25T11:44:51;0.35;;;0.35;;
11907;SDS011;6014;47.690;9.130;2023-04-25T11:47:19;0.35;;;0.35;;
11907;SDS011;6014;47.690;9.130;2023-04-25T11:49:50;0.40;;;0.40;;
11907;SDS011;6014;47.690;9.130;2023-04-25T11:52:20;0.30;;;0.30;;
11907;SDS011;6014;47.690;9.130;2023-04-25T11:54:48;0.32;;;0.32;;
11907;SDS011;6014;47.690;9.130;2023-04-25T11:57:18;0.43;;;0.43;;
11907;SDS011;6014;47.690;9.130;2023-04-25T12:00:05;0.40;;;0.40;;
11907;SDS011;6014;47.690;9.130;2023-04-25T12:02:40;0.20;;;0.20;;
11907;SDS011;6014;47.690;9.130;2023-04-25T12:05:13;0.65;;;0.50;;
11907;SDS011;6014;47.690;9.130;2023-04-25T12:07:46;0.50;;;0.50;;
11907;SDS011;6014;47.690;9.130;2023-04-25T12:10:18;0.50;;;0.50;;
11907;SDS011;6014;47.690;9.130;2023-04-25T12:12:47;0.40;;;0.40;;
11907;SDS011;6014;47.690;9.130;2023-04-25T12:15:23;0.30;;;0.30;;
11907;SDS011;6014;47.690;9.130;2023-04-25T12:17:54;0.52;;;0.52;;
11907;SDS011;6014;47.690;9.130;2023-04-25T12:20:24;0.63;;;0.60;;
11907;SDS011;6014;47.690;9.130;2023-04-25T12:22:52;0.40;;;0.40;;
11907;SDS011;6014;47.690;9.130;2023-04-25T12:25:34;0.50;;;0.50;;
11907;SDS011;6014;47.690;9.130;2023-04-25T12:28:11;0.30;;;0.30;;
11907;SDS011;6014;47.690;9.130;2023-04-25T12:30:56;0.40;;;0.40;;
11907;SDS011;6014;47.690;9.130;2023-04-25T12:33:26;0.40;;;0.40;;
11907;SDS011;6014;47.690;9.130;2023-04-25T12:35:57;0.53;;;0.53;;
11907;SDS011;6014;47.690;9.130;2023-04-25T12:38:25;0.40;;;0.40;;
11907;SDS011;6014;47.690;9.130;2023-04-25T12:40:55;0.30;;;0.30;;
11907;SDS011;6014;47.690;9.130;2023-04-25T12:43:24;0.52;;;0.52;;
11907;SDS011;6014;47.690;9.130;2023-04-25T12:45:53;0.65;;;0.50;;
11907;SDS011;6014;47.690;9.130;2023-04-25T12:48:22;0.57;;;0.57;;
11907;SDS011;6014;47.690;9.130;2023-04-25T12:50:50;0.40;;;0.40;;
11907;SDS011;6014;47.690;9.130;2023-04-25T12:53:26;0.55;;;0.55;;
11907;SDS011;6014;47.690;9.130;2023-04-25T12:55:54;0.50;;;0.50;;
11907;SDS011;6014;47.690;9.130;2023-04-25T12:58:22;0.50;;;0.50;;
11907;SDS011;6014;47.690;9.130;2023-04-25T13:00:51;0.40;;;0.40;;
11907;SDS011;6014;47.690;9.130;2023-04-25T13:03:21;0.57;;;0.47;;
11907;SDS011;6014;47.690;9.130;2023-04-25T13:05:49;0.40;;;0.40;;
11907;SDS011;6014;47.690;9.130;2023-04-25T13:08:18;0.52;;;0.52;;
11907;SDS011;6014;47.690;9.130;2023-04-25T13:10:48;0.50;;;0.50;;
11907;SDS011;6014;47.690;9.130;2023-04-25T13:13:16;0.95;;;0.60;;
11907;SDS011;6014;47.690;9.130;2023-04-25T13:15:44;0.57;;;0.50;;
11907;SDS011;6014;47.690;9.130;2023-04-25T13:18:14;0.30;;;0.30;;
11907;SDS011;6014;47.690;9.130;2023-04-25T13:20:42;0.30;;;0.30;;
11907;SDS011;6014;47.690;9.130;2023-04-25T13:23:10;0.55;;;0.55;;
11907;SDS011;6014;47.690;9.130;2023-04-25T13:25:39;0.47;;;0.47;;
11907;SDS011;6014;47.690;9.130;2023-04-25T13:28:08;0.60;;;0.60;;
11907;SDS011;6014;47.690;9.130;2023-04-25T13:30:38;0.65;;;0.40;;
11907;SDS011;6014;47.690;9.130;2023-04-25T13:33:06;0.30;;;0.30;;
11907;SDS011;6014;47.690;9.130;2023-04-25T13:35:34;0.45;;;0.45;;
11907;SDS011;6014;47.690;9.130;2023-04-25T13:38:04;0.40;;;0.40;;
11907;SDS011;6014;47.690;9.130;2023-04-25T13:40:32;0.73;;;0.52;;
11907;SDS011;6014;47.690;9.130;2023-04-25T13:43:00;2.33;;;0.63;;
11907;SDS011;6014;47.690;9.130;2023-04-25T13:45:30;0.98;;;0.63;;
11907;SDS011;6014;47.690;9.130;2023-04-25T13:47:59;0.77;;;0.65;;
11907;SDS011;6014;47.690;9.130;2023-04-25T13:50:27;1.05;;;0.68;;
11907;SDS011;6014;47.690;9.130;2023-04-25T13:52:55;0.63;;;0.63;;
11907;SDS011;6014;47.690;9.130;2023-04-25T13:55:23;0.40;;;0.40;;
11907;SDS011;6014;47.690;9.130;2023-04-25T13:57:51;0.70;;;0.60;;
11907;SDS011;6014;47.690;9.130;2023-04-25T14:00:20;0.63;;;0.63;;
11907;SDS011;6014;47.690;9.130;2023-04-25T14:02:50;0.68;;;0.68;;
11907;SDS011;6014;47.690;9.130;2023-04-25T14:05:18;0.30;;;0.30;;
11907;SDS011;6014;47.690;9.130;2023-04-25T14:07:46;0.73;;;0.73;;
11907;SDS011;6014;47.690;9.130;2023-04-25T14:10:14;0.40;;;0.40;;
11907;SDS011;6014;47.690;9.130;2023-04-25T14:12:44;0.40;;;0.40;;
11907;SDS011;6014;47.690;9.130;2023-04-25T14:15:12;0.43;;;0.43;;
11907;SDS011;6014;47.690;9.130;2023-04-25T14:17:41;0.63;;;0.63;;
11907;SDS011;6014;47.690;9.130;2023-04-25T14:20:10;0.60;;;0.60;;
11907;SDS011;6014;47.690;9.130;2023-04-25T14:22:39;0.45;;;0.45;;
11907;SDS011;6014;47.690;9.130;2023-04-25T14:25:10;0.50;;;0.50;;
11907;SDS011;6014;47.690;9.130;2023-04-25T14:27:38;0.40;;;0.40;;
11907;SDS011;6014;47.690;9.130;2023-04-25T14:30:06;0.57;;;0.57;;
11907;SDS011;6014;47.690;9.130;2023-04-25T14:32:36;0.82;;;0.80;;
11907;SDS011;6014;47.690;9.130;2023-04-25T14:35:04;0.50;;;0.50;;
11907;SDS011;6014;47.690;9.130;2023-04-25T14:37:34;0.50;;;0.50;;
11907;SDS011;6014;47.690;9.130;2023-04-25T14:40:03;0.47;;;0.47;;
11907;SDS011;6014;47.690;9.130;2023-04-25T14:42:32;0.80;;;0.80;;
11907;SDS011;6014;47.690;9.130;2023-04-25T14:45:01;0.60;;;0.50;;
11907;SDS011;6014;47.690;9.130;2023-04-25T14:47:29;0.33;;;0.33;;
11907;SDS011;6014;47.690;9.130;2023-04-25T14:49:57;0.50;;;0.50;;
11907;SDS011;6014;47.690;9.130;2023-04-25T14:52:30;0.60;;;0.60;;
11907;SDS011;6014;47.690;9.130;2023-04-25T14:54:59;0.83;;;0.70;;
11907;SDS011;6014;47.690;9.130;2023-04-25T14:57:31;0.63;;;0.60;;
11907;SDS011;6014;47.690;9.130;2023-04-25T14:59:59;0.70;;;0.57;;
11907;SDS011;6014;47.690;9.130;2023-04-25T15:02:27;0.52;;;0.52;;
11907;SDS011;6014;47.690;9.130;2023-04-25T15:04:55;2.13;;;1.15;;
11907;SDS011;6014;47.690;9.130;2023-04-25T15:07:24;0.73;;;0.70;;
11907;SDS011;6014;47.690;9.130;2023-04-25T15:09:52;0.40;;;0.40;;
11907;SDS011;6014;47.690;9.130;2023-04-25T15:12:23;0.73;;;0.60;;
11907;SDS011;6014;47.690;9.130;2023-04-25T15:14:52;2.90;;;0.63;;
11907;SDS011;6014;47.690;9.130;2023-04-25T15:17:20;0.40;;;0.40;;